sensor_id;sensor_type;location;lat;lon;timestamp;pressure;altitude;pressure_sealevel;temperature;humidity
1726;BME280;41776;48.260;8.928;2023-11-21T00:01:41;52234.47;;;-145.69;61.12
1726;BME280;41776;48.260;8.928;2023-11-21T00:04:07;52278.03;;;-145.69;61.44
1726;BME280;41776;48.260;8.928;2023-11-21T00:06:33;52246.34;;;-145.69;60.99
1726;BME280;41776;48.260;8.928;2023-11-21T00:09:00;52258.22;;;-145.69;61.26
1726;BME280;41776;48.260;8.928;2023-11-21T00:11:28;52307.75;;;-145.69;61.24
1726;BME280;41776;48.260;8.928;2023-11-21T00:13:55;52276.06;;;-145.69;61.74
1726;BME280;41776;48.260;8.928;2023-11-21T00:16:22;52301.81;;;-145.69;62.08
1726;BME280;41776;48.260;8.928;2023-11-21T00:18:48;52293.88;;;-145.69;62.29
1726;BME280;41776;48.260;8.928;2023-11-21T00:21:16;52293.88;;;-145.69;62.24
1726;BME280;41776;48.260;8.928;2023-11-21T00:23:43;52278.03;;;-145.69;61.31
1726;BME280;41776;48.260;8.928;2023-11-21T00:26:09;52270.13;;;-145.69;61.24
1726;BME280;41776;48.260;8.928;2023-11-21T00:28:37;52297.84;;;-145.69;61.21
1726;BME280;41776;48.260;8.928;2023-11-21T00:31:04;52313.69;;;-145.69;60.61
1726;BME280;41776;48.260;8.928;2023-11-21T00:33:30;52262.19;;;-145.69;60.98
1726;BME280;41776;48.260;8.928;2023-11-21T00:35:57;52278.03;;;-145.69;60.29
1726;BME280;41776;48.260;8.928;2023-11-21T00:38:23;52258.22;;;-145.69;60.44
1726;BME280;41776;48.260;8.928;2023-11-21T00:40:50;52283.97;;;-145.69;60.34
1726;BME280;41776;48.260;8.928;2023-11-21T00:43:16;52258.22;;;-145.69;61.32
1726;BME280;41776;48.260;8.928;2023-11-21T00:45:44;52287.94;;;-145.69;60.34
1726;BME280;41776;48.260;8.928;2023-11-21T00:48:10;52274.06;;;-145.69;60.44
1726;BME280;41776;48.260;8.928;2023-11-21T00:50:38;52274.06;;;-145.69;59.66
1726;BME280;41776;48.260;8.928;2023-11-21T00:53:05;52283.97;;;-145.69;60.48
1726;BME280;41776;48.260;8.928;2023-11-21T00:55:32;52276.06;;;-145.69;59.94
1726;BME280;41776;48.260;8.928;2023-11-21T00:58:00;52285.97;;;-145.69;59.87
1726;BME280;41776;48.260;8.928;2023-11-21T01:00:25;52282.00;;;-145.69;60.26
1726;BME280;41776;48.260;8.928;2023-11-21T01:02:53;52262.19;;;-145.69;60.22
1726;BME280;41776;48.260;8.928;2023-11-21T01:05:20;52274.06;;;-145.69;60.44
1726;BME280;41776;48.260;8.928;2023-11-21T01:07:46;52248.34;;;-145.69;59.99
1726;BME280;41776;48.260;8.928;2023-11-21T01:10:13;52299.81;;;-145.69;59.89
1726;BME280;41776;48.260;8.928;2023-11-21T01:12:39;52289.91;;;-145.69;60.36
1726;BME280;41776;48.260;8.928;2023-11-21T01:15:07;52276.06;;;-145.69;59.89
1726;BME280;41776;48.260;8.928;2023-11-21T01:17:34;52278.03;;;-145.69;58.59
1726;BME280;41776;48.260;8.928;2023-11-21T01:20:02;52282.00;;;-145.69;59.91
1726;BME280;41776;48.260;8.928;2023-11-21T01:22:31;52262.19;;;-145.69;59.77
1726;BME280;41776;48.260;8.928;2023-11-21T01:24:57;52295.84;;;-145.69;59.83
1726;BME280;41776;48.260;8.928;2023-11-21T01:27:24;52274.06;;;-145.69;60.07
1726;BME280;41776;48.260;8.928;2023-11-21T01:29:50;52278.03;;;-145.69;60.11
1726;BME280;41776;48.260;8.928;2023-11-21T01:32:18;52270.13;;;-145.69;59.38
1726;BME280;41776;48.260;8.928;2023-11-21T01:34:45;52280.00;;;-145.69;60.04
1726;BME280;41776;48.260;8.928;2023-11-21T01:37:13;52283.97;;;-145.69;58.58
1726;BME280;41776;48.260;8.928;2023-11-21T01:39:39;52270.13;;;-145.69;58.89
1726;BME280;41776;48.260;8.928;2023-11-21T01:42:06;52266.16;;;-145.69;58.76
1726;BME280;41776;48.260;8.928;2023-11-21T01:44:33;52250.31;;;-145.69;59.27
1726;BME280;41776;48.260;8.928;2023-11-21T01:46:59;52262.19;;;-145.69;58.97
1726;BME280;41776;48.260;8.928;2023-11-21T01:49:30;52285.97;;;-145.69;58.76
1726;BME280;41776;48.260;8.928;2023-11-21T01:51:57;52311.69;;;-145.69;59.18
1726;BME280;41776;48.260;8.928;2023-11-21T01:54:26;52285.97;;;-145.69;59.30
1726;BME280;41776;48.260;8.928;2023-11-21T01:56:52;52287.94;;;-145.69;59.40
1726;BME280;41776;48.260;8.928;2023-11-21T01:59:20;52274.06;;;-145.69;59.38
1726;BME280;41776;48.260;8.928;2023-11-21T02:01:47;52287.94;;;-145.69;59.91
1726;BME280;41776;48.260;8.928;2023-11-21T02:04:15;52293.88;;;-145.69;59.55
1726;BME280;41776;48.260;8.928;2023-11-21T02:06:42;52325.56;;;-145.69;60.39
1726;BME280;41776;48.260;8.928;2023-11-21T02:09:09;52280.00;;;-145.69;59.59
1726;BME280;41776;48.260;8.928;2023-11-21T02:11:41;52270.13;;;-145.69;59.56
1726;BME280;41776;48.260;8.928;2023-11-21T02:14:08;52291.91;;;-145.69;59.32
1726;BME280;41776;48.260;8.928;2023-11-21T02:16:34;52291.91;;;-145.69;59.39
1726;BME280;41776;48.260;8.928;2023-11-21T02:19:01;52291.91;;;-145.69;58.81
1726;BME280;41776;48.260;8.928;2023-11-21T02:21:29;52278.03;;;-145.69;59.32
1726;BME280;41776;48.260;8.928;2023-11-21T02:23:58;52264.16;;;-145.69;58.98
1726;BME280;41776;48.260;8.928;2023-11-21T02:26:24;52283.97;;;-145.69;58.83
1726;BME280;41776;48.260;8.928;2023-11-21T02:28:51;52258.22;;;-145.69;58.21
1726;BME280;41776;48.260;8.928;2023-11-21T02:31:18;52270.13;;;-145.69;57.96
1726;BME280;41776;48.260;8.928;2023-11-21T02:33:45;52283.97;;;-145.69;58.27
1726;BME280;41776;48.260;8.928;2023-11-21T02:36:11;52260.22;;;-145.69;58.70
1726;BME280;41776;48.260;8.928;2023-11-21T02:38:38;52278.03;;;-145.69;57.98
1726;BME280;41776;48.260;8.928;2023-11-21T02:41:05;52260.22;;;-145.69;58.16
1726;BME280;41776;48.260;8.928;2023-11-21T02:43:32;52282.00;;;-145.69;58.43
1726;BME280;41776;48.260;8.928;2023-11-21T02:45:59;52266.16;;;-145.69;59.01
1726;BME280;41776;48.260;8.928;2023-11-21T02:48:25;52282.00;;;-145.69;58.88
1726;BME280;41776;48.260;8.928;2023-11-21T02:50:52;52285.97;;;-145.69;58.83
1726;BME280;41776;48.260;8.928;2023-11-21T02:53:19;52252.28;;;-145.69;58.87
1726;BME280;41776;48.260;8.928;2023-11-21T02:55:45;52268.13;;;-145.69;58.81
1726;BME280;41776;48.260;8.928;2023-11-21T02:58:13;52248.34;;;-145.69;58.81
1726;BME280;41776;48.260;8.928;2023-11-21T03:00:39;52274.06;;;-145.69;58.82
1726;BME280;41776;48.260;8.928;2023-11-21T03:03:07;52254.28;;;-145.69;58.76
1726;BME280;41776;48.260;8.928;2023-11-21T03:05:33;52274.06;;;-145.69;59.14
1726;BME280;41776;48.260;8.928;2023-11-21T03:08:00;52262.19;;;-145.69;59.89
1726;BME280;41776;48.260;8.928;2023-11-21T03:10:27;52282.00;;;-145.69;59.48
1726;BME280;41776;48.260;8.928;2023-11-21T03:12:53;52280.00;;;-145.69;59.46
1726;BME280;41776;48.260;8.928;2023-11-21T03:15:21;52291.91;;;-145.69;59.64
1726;BME280;41776;48.260;8.928;2023-11-21T03:17:47;52291.91;;;-145.69;59.63
1726;BME280;41776;48.260;8.928;2023-11-21T03:20:15;52293.88;;;-145.69;60.11
1726;BME280;41776;48.260;8.928;2023-11-21T03:22:41;52276.06;;;-145.69;59.89
1726;BME280;41776;48.260;8.928;2023-11-21T03:25:08;52262.19;;;-145.69;60.43
1726;BME280;41776;48.260;8.928;2023-11-21T03:27:36;52293.88;;;-145.69;60.02
1726;BME280;41776;48.260;8.928;2023-11-21T03:30:04;52305.75;;;-145.69;60.49
1726;BME280;41776;48.260;8.928;2023-11-21T03:32:33;52266.16;;;-145.69;59.65
1726;BME280;41776;48.260;8.928;2023-11-21T03:35:00;52278.03;;;-145.69;59.51
1726;BME280;41776;48.260;8.928;2023-11-21T03:37:27;52283.97;;;-145.69;60.39
1726;BME280;41776;48.260;8.928;2023-11-21T03:39:54;52278.03;;;-145.69;60.44
1726;BME280;41776;48.260;8.928;2023-11-21T03:42:21;52274.06;;;-145.69;60.01
1726;BME280;41776;48.260;8.928;2023-11-21T03:44:47;52254.28;;;-145.69;60.11
1726;BME280;41776;48.260;8.928;2023-11-21T03:47:14;52256.25;;;-145.69;61.20
1726;BME280;41776;48.260;8.928;2023-11-21T03:49:42;52301.81;;;-145.69;60.99
1726;BME280;41776;48.260;8.928;2023-11-21T03:52:08;52258.22;;;-145.69;61.58
1726;BME280;41776;48.260;8.928;2023-11-21T03:54:35;52331.50;;;-145.69;61.82
1726;BME280;41776;48.260;8.928;2023-11-21T03:57:02;52266.16;;;-145.69;61.81
1726;BME280;41776;48.260;8.928;2023-11-21T03:59:29;52278.03;;;-145.69;61.67
1726;BME280;41776;48.260;8.928;2023-11-21T04:01:56;52305.75;;;-145.69;61.81
1726;BME280;41776;48.260;8.928;2023-11-21T04:04:23;52293.88;;;-145.69;61.32
1726;BME280;41776;48.260;8.928;2023-11-21T04:06:50;52299.81;;;-145.69;61.92
1726;BME280;41776;48.260;8.928;2023-11-21T04:09:18;52303.78;;;-145.69;61.51
1726;BME280;41776;48.260;8.928;2023-11-21T04:11:44;52299.81;;;-145.69;61.99
1726;BME280;41776;48.260;8.928;2023-11-21T04:14:11;52280.00;;;-145.69;62.04
1726;BME280;41776;48.260;8.928;2023-11-21T04:16:37;52258.22;;;-145.69;62.48
1726;BME280;41776;48.260;8.928;2023-11-21T04:19:04;52291.91;;;-145.69;62.19
1726;BME280;41776;48.260;8.928;2023-11-21T04:21:30;52303.78;;;-145.69;62.20
1726;BME280;41776;48.260;8.928;2023-11-21T04:23:58;52280.00;;;-145.69;62.03
1726;BME280;41776;48.260;8.928;2023-11-21T04:26:24;52293.88;;;-145.69;62.27
1726;BME280;41776;48.260;8.928;2023-11-21T04:28:51;52297.84;;;-145.69;62.13
1726;BME280;41776;48.260;8.928;2023-11-21T04:31:17;52305.75;;;-145.69;62.48
1726;BME280;41776;48.260;8.928;2023-11-21T04:33:44;52278.03;;;-145.69;62.74
1726;BME280;41776;48.260;8.928;2023-11-21T04:36:11;52276.06;;;-145.69;62.69
1726;BME280;41776;48.260;8.928;2023-11-21T04:38:37;52295.84;;;-145.69;62.73
1726;BME280;41776;48.260;8.928;2023-11-21T04:41:06;52285.97;;;-145.69;62.03
1726;BME280;41776;48.260;8.928;2023-11-21T04:43:32;52305.75;;;-145.69;62.32
1726;BME280;41776;48.260;8.928;2023-11-21T04:45:59;52303.78;;;-145.69;61.84
1726;BME280;41776;48.260;8.928;2023-11-21T04:48:27;52297.84;;;-145.69;62.61
1726;BME280;41776;48.260;8.928;2023-11-21T04:50:53;52303.78;;;-145.69;64.01
1726;BME280;41776;48.260;8.928;2023-11-21T04:53:20;52321.59;;;-145.69;64.41
1726;BME280;41776;48.260;8.928;2023-11-21T04:55:46;52323.59;;;-145.69;64.29
1726;BME280;41776;48.260;8.928;2023-11-21T04:58:15;52264.16;;;-145.69;63.83
1726;BME280;41776;48.260;8.928;2023-11-21T05:00:41;52305.75;;;-145.69;64.34
1726;BME280;41776;48.260;8.928;2023-11-21T05:03:09;52285.97;;;-145.69;64.14
1726;BME280;41776;48.260;8.928;2023-11-21T05:05:35;52278.03;;;-145.69;64.54
1726;BME280;41776;48.260;8.928;2023-11-21T05:08:03;52305.75;;;-145.69;64.36
1726;BME280;41776;48.260;8.928;2023-11-21T05:10:29;52309.72;;;-145.69;63.87
1726;BME280;41776;48.260;8.928;2023-11-21T05:12:56;52317.66;;;-145.69;64.68
1726;BME280;41776;48.260;8.928;2023-11-21T05:15:25;52295.84;;;-145.69;64.63
1726;BME280;41776;48.260;8.928;2023-11-21T05:17:53;52287.94;;;-145.69;64.85
1726;BME280;41776;48.260;8.928;2023-11-21T05:20:20;52278.03;;;-145.69;64.59
1726;BME280;41776;48.260;8.928;2023-11-21T05:22:47;52303.78;;;-145.69;64.67
1726;BME280;41776;48.260;8.928;2023-11-21T05:25:14;52309.72;;;-145.69;64.93
1726;BME280;41776;48.260;8.928;2023-11-21T05:27:42;52266.16;;;-145.69;64.92
1726;BME280;41776;48.260;8.928;2023-11-21T05:30:09;52266.16;;;-145.69;65.41
1726;BME280;41776;48.260;8.928;2023-11-21T05:32:39;52282.00;;;-145.69;64.80
1726;BME280;41776;48.260;8.928;2023-11-21T05:35:07;52268.13;;;-145.69;65.13
1726;BME280;41776;48.260;8.928;2023-11-21T05:37:37;52305.75;;;-145.69;65.43
1726;BME280;41776;48.260;8.928;2023-11-21T05:40:06;52293.88;;;-145.69;65.21
1726;BME280;41776;48.260;8.928;2023-11-21T05:42:33;52289.91;;;-145.69;64.97
1726;BME280;41776;48.260;8.928;2023-11-21T05:45:00;52311.69;;;-145.69;65.21
1726;BME280;41776;48.260;8.928;2023-11-21T05:47:35;52289.91;;;-145.69;65.44
1726;BME280;41776;48.260;8.928;2023-11-21T05:50:04;52315.66;;;-145.69;65.61
1726;BME280;41776;48.260;8.928;2023-11-21T05:52:31;52274.06;;;-145.69;65.93
1726;BME280;41776;48.260;8.928;2023-11-21T05:54:58;52309.72;;;-145.69;65.34
1726;BME280;41776;48.260;8.928;2023-11-21T05:57:24;52325.56;;;-145.69;65.73
1726;BME280;41776;48.260;8.928;2023-11-21T05:59:51;52262.19;;;-145.69;65.83
1726;BME280;41776;48.260;8.928;2023-11-21T06:02:17;52276.06;;;-145.69;65.76
1726;BME280;41776;48.260;8.928;2023-11-21T06:04:44;52270.13;;;-145.69;65.48
1726;BME280;41776;48.260;8.928;2023-11-21T06:07:12;52291.91;;;-145.69;66.01
1726;BME280;41776;48.260;8.928;2023-11-21T06:09:38;52325.56;;;-145.69;65.89
1726;BME280;41776;48.260;8.928;2023-11-21T06:12:05;52325.56;;;-145.69;66.13
1726;BME280;41776;48.260;8.928;2023-11-21T06:14:32;52301.81;;;-145.69;65.53
1726;BME280;41776;48.260;8.928;2023-11-21T06:17:00;52313.69;;;-145.69;65.46
1726;BME280;41776;48.260;8.928;2023-11-21T06:19:27;52293.88;;;-145.69;65.61
1726;BME280;41776;48.260;8.928;2023-11-21T06:21:53;52329.53;;;-145.69;66.16
1726;BME280;41776;48.260;8.928;2023-11-21T06:24:22;52321.59;;;-145.69;65.68
1726;BME280;41776;48.260;8.928;2023-11-21T06:26:48;52278.03;;;-145.69;66.16
1726;BME280;41776;48.260;8.928;2023-11-21T06:29:15;52287.94;;;-145.69;65.41
1726;BME280;41776;48.260;8.928;2023-11-21T06:31:41;52293.88;;;-145.69;65.84
1726;BME280;41776;48.260;8.928;2023-11-21T06:34:09;52313.69;;;-145.69;66.03
1726;BME280;41776;48.260;8.928;2023-11-21T06:36:35;52321.59;;;-145.69;65.32
1726;BME280;41776;48.260;8.928;2023-11-21T06:39:02;52327.53;;;-145.69;66.00
1726;BME280;41776;48.260;8.928;2023-11-21T06:41:33;52238.44;;;-145.69;65.48
1726;BME280;41776;48.260;8.928;2023-11-21T06:43:59;52299.81;;;-145.69;66.20
1726;BME280;41776;48.260;8.928;2023-11-21T06:46:26;52307.75;;;-145.69;66.05
1726;BME280;41776;48.260;8.928;2023-11-21T06:48:53;52278.03;;;-145.69;65.99
1726;BME280;41776;48.260;8.928;2023-11-21T06:51:19;52282.00;;;-145.69;66.16
1726;BME280;41776;48.260;8.928;2023-11-21T06:53:46;52293.88;;;-145.69;66.26
1726;BME280;41776;48.260;8.928;2023-11-21T06:56:16;52287.94;;;-145.69;66.05
1726;BME280;41776;48.260;8.928;2023-11-21T06:58:45;52289.91;;;-145.69;66.42
1726;BME280;41776;48.260;8.928;2023-11-21T07:01:12;52270.13;;;-145.69;66.17
1726;BME280;41776;48.260;8.928;2023-11-21T07:03:38;52315.66;;;-145.69;66.41
1726;BME280;41776;48.260;8.928;2023-11-21T07:06:06;52321.59;;;-145.69;65.68
1726;BME280;41776;48.260;8.928;2023-11-21T07:08:33;52285.97;;;-145.69;65.61
1726;BME280;41776;48.260;8.928;2023-11-21T07:10:59;52282.00;;;-145.69;65.76
1726;BME280;41776;48.260;8.928;2023-11-21T07:13:26;52305.75;;;-145.69;66.20
1726;BME280;41776;48.260;8.928;2023-11-21T07:15:57;52293.88;;;-145.69;66.10
1726;BME280;41776;48.260;8.928;2023-11-21T07:18:24;52297.84;;;-145.69;65.56
1726;BME280;41776;48.260;8.928;2023-11-21T07:20:50;52266.16;;;-145.69;66.26
1726;BME280;41776;48.260;8.928;2023-11-21T07:23:17;52319.63;;;-145.69;65.95
1726;BME280;41776;48.260;8.928;2023-11-21T07:25:43;52270.13;;;-145.69;65.46
1726;BME280;41776;48.260;8.928;2023-11-21T07:28:10;52319.63;;;-145.69;66.02
1726;BME280;41776;48.260;8.928;2023-11-21T07:30:36;52301.81;;;-145.69;65.16
1726;BME280;41776;48.260;8.928;2023-11-21T07:33:04;52287.94;;;-145.69;64.77
1726;BME280;41776;48.260;8.928;2023-11-21T07:35:32;52282.00;;;-145.69;63.75
1726;BME280;41776;48.260;8.928;2023-11-21T07:37:59;52319.63;;;-145.69;64.43
1726;BME280;41776;48.260;8.928;2023-11-21T07:40:25;52293.88;;;-145.69;63.74
1726;BME280;41776;48.260;8.928;2023-11-21T07:42:52;52305.75;;;-145.69;63.76
1726;BME280;41776;48.260;8.928;2023-11-21T07:45:19;52238.44;;;-145.69;63.11
1726;BME280;41776;48.260;8.928;2023-11-21T07:47:47;52297.84;;;-145.69;63.97
1726;BME280;41776;48.260;8.928;2023-11-21T07:50:15;52266.16;;;-145.69;63.83
1726;BME280;41776;48.260;8.928;2023-11-21T07:52:41;52289.91;;;-145.69;62.82
1726;BME280;41776;48.260;8.928;2023-11-21T07:55:09;52297.84;;;-145.69;62.29
1726;BME280;41776;48.260;8.928;2023-11-21T07:57:36;52268.13;;;-145.69;62.08
1726;BME280;41776;48.260;8.928;2023-11-21T08:00:04;52236.44;;;-145.69;61.86
1726;BME280;41776;48.260;8.928;2023-11-21T08:02:31;52289.91;;;-145.69;61.72
1726;BME280;41776;48.260;8.928;2023-11-21T08:04:58;52280.00;;;-145.69;60.74
1726;BME280;41776;48.260;8.928;2023-11-21T08:07:27;52289.91;;;-145.69;61.40
1726;BME280;41776;48.260;8.928;2023-11-21T08:09:53;52270.13;;;-145.69;60.72
1726;BME280;41776;48.260;8.928;2023-11-21T08:12:21;52287.94;;;-145.69;61.09
1726;BME280;41776;48.260;8.928;2023-11-21T08:14:49;52250.31;;;-145.69;60.49
1726;BME280;41776;48.260;8.928;2023-11-21T08:17:15;52313.69;;;-145.69;60.15
1726;BME280;41776;48.260;8.928;2023-11-21T08:19:42;52270.13;;;-145.69;59.36
1726;BME280;41776;48.260;8.928;2023-11-21T08:22:10;52285.97;;;-145.69;59.81
1726;BME280;41776;48.260;8.928;2023-11-21T08:24:37;52287.94;;;-145.69;59.21
1726;BME280;41776;48.260;8.928;2023-11-21T08:27:04;52262.19;;;-145.69;58.93
1726;BME280;41776;48.260;8.928;2023-11-21T08:29:33;52262.19;;;-145.69;58.78
1726;BME280;41776;48.260;8.928;2023-11-21T08:32:01;52289.91;;;-145.69;58.47
1726;BME280;41776;48.260;8.928;2023-11-21T08:34:28;52270.13;;;-145.69;58.47
1726;BME280;41776;48.260;8.928;2023-11-21T08:36:54;52266.16;;;-145.69;56.76
1726;BME280;41776;48.260;8.928;2023-11-21T08:39:22;52254.28;;;-145.69;57.05
1726;BME280;41776;48.260;8.928;2023-11-21T08:41:50;52285.97;;;-145.69;57.11
1726;BME280;41776;48.260;8.928;2023-11-21T08:44:19;52268.13;;;-145.69;58.01
1726;BME280;41776;48.260;8.928;2023-11-21T08:46:45;52278.03;;;-145.69;56.89
1726;BME280;41776;48.260;8.928;2023-11-21T08:49:12;52250.31;;;-145.69;56.32
1726;BME280;41776;48.260;8.928;2023-11-21T08:51:39;52250.31;;;-145.69;56.47
1726;BME280;41776;48.260;8.928;2023-11-21T08:54:09;52303.78;;;-145.69;56.41
1726;BME280;41776;48.260;8.928;2023-11-21T08:56:37;52244.38;;;-145.69;56.90
1726;BME280;41776;48.260;8.928;2023-11-21T08:59:04;52266.16;;;-145.69;57.04
1726;BME280;41776;48.260;8.928;2023-11-21T09:01:33;52297.84;;;-145.69;56.87
1726;BME280;41776;48.260;8.928;2023-11-21T09:03:59;52238.44;;;-145.69;57.30
1726;BME280;41776;48.260;8.928;2023-11-21T09:06:26;52240.41;;;-145.69;57.31
1726;BME280;41776;48.260;8.928;2023-11-21T09:08:52;52238.44;;;-145.69;57.45
1726;BME280;41776;48.260;8.928;2023-11-21T09:11:19;52252.28;;;-145.69;57.15
1726;BME280;41776;48.260;8.928;2023-11-21T09:13:45;52287.94;;;-145.69;57.75
1726;BME280;41776;48.260;8.928;2023-11-21T09:16:14;52278.03;;;-145.69;57.68
1726;BME280;41776;48.260;8.928;2023-11-21T09:18:41;52242.38;;;-145.69;57.56
1726;BME280;41776;48.260;8.928;2023-11-21T09:21:08;52266.16;;;-145.69;57.00
1726;BME280;41776;48.260;8.928;2023-11-21T09:23:35;52274.06;;;-145.69;58.05
1726;BME280;41776;48.260;8.928;2023-11-21T09:26:05;52238.44;;;-145.69;57.00
1726;BME280;41776;48.260;8.928;2023-11-21T09:28:34;52282.00;;;-145.69;57.43
1726;BME280;41776;48.260;8.928;2023-11-21T09:31:04;52270.13;;;-145.69;57.31
1726;BME280;41776;48.260;8.928;2023-11-21T09:33:35;52240.41;;;-145.69;57.48
1726;BME280;41776;48.260;8.928;2023-11-21T09:36:04;52278.03;;;-145.69;57.36
1726;BME280;41776;48.260;8.928;2023-11-21T09:38:30;52266.16;;;-145.69;57.13
1726;BME280;41776;48.260;8.928;2023-11-21T09:41:00;52234.47;;;-145.69;57.11
1726;BME280;41776;48.260;8.928;2023-11-21T09:43:28;52254.28;;;-145.69;58.15
1726;BME280;41776;48.260;8.928;2023-11-21T09:46:00;52262.19;;;-145.69;57.96
1726;BME280;41776;48.260;8.928;2023-11-21T09:48:29;52238.44;;;-145.69;58.11
1726;BME280;41776;48.260;8.928;2023-11-21T09:50:59;52208.72;;;-145.69;58.26
1726;BME280;41776;48.260;8.928;2023-11-21T09:53:27;52234.47;;;-145.69;57.37
1726;BME280;41776;48.260;8.928;2023-11-21T09:55:55;52252.28;;;-145.69;58.00
1726;BME280;41776;48.260;8.928;2023-11-21T09:58:22;52260.22;;;-145.69;58.17
1726;BME280;41776;48.260;8.928;2023-11-21T10:00:52;52291.91;;;-145.69;57.45
1726;BME280;41776;48.260;8.928;2023-11-21T10:03:19;52297.84;;;-145.69;57.36
1726;BME280;41776;48.260;8.928;2023-11-21T10:05:48;52262.19;;;-145.69;57.12
1726;BME280;41776;48.260;8.928;2023-11-21T10:08:18;52252.28;;;-145.69;56.42
1726;BME280;41776;48.260;8.928;2023-11-21T10:10:49;52250.31;;;-145.69;56.58
1726;BME280;41776;48.260;8.928;2023-11-21T10:13:17;52250.31;;;-145.69;57.01
1726;BME280;41776;48.260;8.928;2023-11-21T10:15:49;52274.06;;;-145.69;57.25
1726;BME280;41776;48.260;8.928;2023-11-21T10:18:16;52266.16;;;-145.69;57.48
1726;BME280;41776;48.260;8.928;2023-11-21T10:20:45;52272.09;;;-145.69;57.93
1726;BME280;41776;48.260;8.928;2023-11-21T10:23:18;52248.34;;;-145.69;58.43
1726;BME280;41776;48.260;8.928;2023-11-21T10:25:46;52254.28;;;-145.69;57.88
1726;BME280;41776;48.260;8.928;2023-11-21T10:28:12;52266.16;;;-145.69;58.31
1726;BME280;41776;48.260;8.928;2023-11-21T10:30:39;52256.25;;;-145.69;58.78
1726;BME280;41776;48.260;8.928;2023-11-21T10:33:06;52252.28;;;-145.69;58.73
1726;BME280;41776;48.260;8.928;2023-11-21T10:35:44;52234.47;;;-145.69;58.55
1726;BME280;41776;48.260;8.928;2023-11-21T10:38:17;52280.00;;;-145.69;59.37
1726;BME280;41776;48.260;8.928;2023-11-21T10:40:46;52315.66;;;-145.69;60.03
1726;BME280;41776;48.260;8.928;2023-11-21T10:43:14;52262.19;;;-145.69;60.07
1726;BME280;41776;48.260;8.928;2023-11-21T10:45:41;52266.16;;;-145.69;60.08
1726;BME280;41776;48.260;8.928;2023-11-21T10:48:10;52244.38;;;-145.69;59.80
1726;BME280;41776;48.260;8.928;2023-11-21T10:50:37;52226.53;;;-145.69;59.87
1726;BME280;41776;48.260;8.928;2023-11-21T10:53:04;52222.59;;;-145.69;60.03
1726;BME280;41776;48.260;8.928;2023-11-21T10:55:33;52250.31;;;-145.69;59.76
1726;BME280;41776;48.260;8.928;2023-11-21T10:58:01;52244.38;;;-145.69;59.81
1726;BME280;41776;48.260;8.928;2023-11-21T11:00:30;52268.13;;;-145.69;59.83
1726;BME280;41776;48.260;8.928;2023-11-21T11:02:57;52258.22;;;-145.69;59.54
1726;BME280;41776;48.260;8.928;2023-11-21T11:05:25;52246.34;;;-145.69;59.30
1726;BME280;41776;48.260;8.928;2023-11-21T11:07:58;52272.09;;;-145.69;59.21
1726;BME280;41776;48.260;8.928;2023-11-21T11:10:25;52270.13;;;-145.69;59.09
1726;BME280;41776;48.260;8.928;2023-11-21T11:12:53;52276.06;;;-145.69;58.44
1726;BME280;41776;48.260;8.928;2023-11-21T11:15:21;52248.34;;;-145.69;58.78
1726;BME280;41776;48.260;8.928;2023-11-21T11:17:50;52258.22;;;-145.69;59.42
1726;BME280;41776;48.260;8.928;2023-11-21T11:20:17;52260.22;;;-145.69;59.79
1726;BME280;41776;48.260;8.928;2023-11-21T11:22:53;52252.28;;;-145.69;59.44
1726;BME280;41776;48.260;8.928;2023-11-21T11:25:41;52252.28;;;-145.69;59.21
1726;BME280;41776;48.260;8.928;2023-11-21T11:28:18;52228.53;;;-145.69;59.44
1726;BME280;41776;48.260;8.928;2023-11-21T11:30:53;52246.34;;;-145.69;60.26
1726;BME280;41776;48.260;8.928;2023-11-21T11:33:29;52262.19;;;-145.69;61.01
1726;BME280;41776;48.260;8.928;2023-11-21T11:36:03;52289.91;;;-145.69;60.60
1726;BME280;41776;48.260;8.928;2023-11-21T11:38:31;52274.06;;;-145.69;60.50
1726;BME280;41776;48.260;8.928;2023-11-21T11:41:07;52285.97;;;-145.69;60.76
1726;BME280;41776;48.260;8.928;2023-11-21T11:43:36;52250.31;;;-145.69;61.04
1726;BME280;41776;48.260;8.928;2023-11-21T11:46:10;52228.53;;;-145.69;60.32
1726;BME280;41776;48.260;8.928;2023-11-21T11:48:38;52246.34;;;-145.69;60.99
1726;BME280;41776;48.260;8.928;2023-11-21T11:51:06;52299.81;;;-145.69;60.44
1726;BME280;41776;48.260;8.928;2023-11-21T11:53:39;52252.28;;;-145.69;60.04
1726;BME280;41776;48.260;8.928;2023-11-21T11:56:24;52262.19;;;-145.69;59.86
1726;BME280;41776;48.260;8.928;2023-11-21T11:58:55;52283.97;;;-145.69;60.20
1726;BME280;41776;48.260;8.928;2023-11-21T12:01:24;52278.03;;;-145.69;60.36
1726;BME280;41776;48.260;8.928;2023-11-21T12:04:27;52248.34;;;-145.69;59.91
1726;BME280;41776;48.260;8.928;2023-11-21T12:07:04;52234.47;;;-145.69;60.95
1726;BME280;41776;48.260;8.928;2023-11-21T12:09:32;52262.19;;;-145.69;61.67
1726;BME280;41776;48.260;8.928;2023-11-21T12:11:59;52264.16;;;-145.69;61.71
1726;BME280;41776;48.260;8.928;2023-11-21T12:14:27;52285.97;;;-145.69;60.92
1726;BME280;41776;48.260;8.928;2023-11-21T12:16:54;52270.13;;;-145.69;61.26
1726;BME280;41776;48.260;8.928;2023-11-21T12:19:21;52285.97;;;-145.69;61.05
1726;BME280;41776;48.260;8.928;2023-11-21T12:21:49;52285.97;;;-145.69;60.66
1726;BME280;41776;48.260;8.928;2023-11-21T12:24:16;52262.19;;;-145.69;61.01
1726;BME280;41776;48.260;8.928;2023-11-21T12:26:43;52248.34;;;-145.69;60.94
1726;BME280;41776;48.260;8.928;2023-11-21T12:29:13;52258.22;;;-145.69;61.62
1726;BME280;41776;48.260;8.928;2023-11-21T12:31:41;52278.03;;;-145.69;61.34
1726;BME280;41776;48.260;8.928;2023-11-21T12:34:08;52289.91;;;-145.69;60.81
1726;BME280;41776;48.260;8.928;2023-11-21T12:36:37;52278.03;;;-145.69;60.84
1726;BME280;41776;48.260;8.928;2023-11-21T12:39:04;52246.34;;;-145.69;61.27
1726;BME280;41776;48.260;8.928;2023-11-21T12:41:30;52282.00;;;-145.69;61.33
1726;BME280;41776;48.260;8.928;2023-11-21T12:43:57;52246.34;;;-145.69;61.42
1726;BME280;41776;48.260;8.928;2023-11-21T12:46:23;52282.00;;;-145.69;61.54
1726;BME280;41776;48.260;8.928;2023-11-21T12:48:55;52254.28;;;-145.69;61.09
1726;BME280;41776;48.260;8.928;2023-11-21T12:51:21;52220.59;;;-145.69;60.85
1726;BME280;41776;48.260;8.928;2023-11-21T12:53:49;52268.13;;;-145.69;60.61